createdAt,value
2022-11-14T00:06:33.860Z,0.60
2022-11-14T00:09:19.808Z,0.70
2022-11-14T00:12:06.069Z,0.40
2022-11-14T00:14:52.133Z,0.20
2022-11-14T00:17:38.361Z,0.20
2022-11-14T00:20:24.415Z,0.10
2022-11-14T00:23:10.726Z,0.00
2022-11-14T00:25:56.747Z,0.00
2022-11-14T00:28:42.495Z,-0.10
2022-11-14T00:31:28.476Z,0.00
2022-11-14T00:34:14.664Z,0.00
2022-11-14T00:37:00.819Z,-0.10
2022-11-14T00:39:46.785Z,-0.10
2022-11-14T00:42:34.503Z,-0.10
2022-11-14T00:45:20.385Z,-0.20
2022-11-14T00:48:06.565Z,-0.10
2022-11-14T00:50:52.493Z,-0.10
2022-11-14T00:53:38.736Z,-0.10
2022-11-14T00:56:24.668Z,-0.20
2022-11-14T00:59:10.696Z,-0.40
2022-11-14T01:01:58.142Z,-0.40
2022-11-14T01:04:44.086Z,-0.30
2022-11-14T01:07:30.507Z,-0.20
2022-11-14T01:10:17.526Z,-0.20
2022-11-14T01:13:03.461Z,0.00
2022-11-14T01:15:50.313Z,0.10
2022-11-14T01:18:42.946Z,0.10
2022-11-14T01:21:28.896Z,-0.10
2022-11-14T01:24:14.807Z,-0.20
2022-11-14T01:27:01.274Z,-0.30
2022-11-14T01:29:46.953Z,-0.30
2022-11-14T01:32:32.666Z,-0.40
2022-11-14T01:35:18.698Z,-0.40
2022-11-14T01:38:05.904Z,-0.40
2022-11-14T01:40:51.879Z,-0.40
2022-11-14T01:43:38.815Z,-0.30
2022-11-14T01:46:29.587Z,-0.10
2022-11-14T01:49:30.529Z,0.10
2022-11-14T01:52:27.429Z,0.00
2022-11-14T01:55:13.849Z,0.00
2022-11-14T01:58:00.498Z,-0.10
2022-11-14T02:00:46.217Z,0.00
2022-11-14T02:03:36.013Z,0.00
2022-11-14T02:06:24.732Z,0.00
2022-11-14T02:09:10.646Z,-0.10
2022-11-14T02:11:59.230Z,-0.10
2022-11-14T02:14:48.177Z,-0.30
2022-11-14T02:17:37.871Z,-0.40
2022-11-14T02:20:28.587Z,-0.50
2022-11-14T02:23:15.827Z,-0.50
2022-11-14T02:26:01.939Z,-0.50
2022-11-14T02:28:48.457Z,-0.50
2022-11-14T02:31:35.031Z,-0.40
2022-11-14T02:34:20.952Z,-0.40
2022-11-14T02:37:07.190Z,-0.40
2022-11-14T02:39:53.199Z,-0.40
2022-11-14T02:42:39.277Z,-0.50
2022-11-14T02:45:25.589Z,-0.50
2022-11-14T02:48:11.986Z,-0.50
2022-11-14T02:50:57.983Z,-0.50
2022-11-14T02:53:44.152Z,-0.50
2022-11-14T02:56:30.403Z,-0.50
2022-11-14T02:59:16.503Z,-0.50
2022-11-14T03:02:02.421Z,-0.50
2022-11-14T03:04:48.086Z,-0.50
2022-11-14T03:07:34.323Z,-0.40
2022-11-14T03:10:20.938Z,-0.40
2022-11-14T03:13:06.707Z,-0.30
2022-11-14T03:15:52.839Z,-0.40
2022-11-14T03:18:44.315Z,-0.30
2022-11-14T03:21:30.024Z,-0.20
2022-11-14T03:24:15.988Z,-0.20
2022-11-14T03:27:02.080Z,-0.60
2022-11-14T03:29:48.976Z,-0.70
2022-11-14T03:32:34.710Z,-0.70
2022-11-14T03:35:20.836Z,-0.60
2022-11-14T03:38:06.532Z,-0.40
2022-11-14T03:40:52.598Z,-0.20
2022-11-14T03:43:38.264Z,-0.20
2022-11-14T03:46:24.377Z,-0.50
2022-11-14T03:49:10.505Z,-0.70
2022-11-14T03:51:56.252Z,-0.70
2022-11-14T03:54:42.342Z,-0.60
2022-11-14T03:57:28.433Z,-0.60
2022-11-14T04:00:14.693Z,-0.60
2022-11-14T04:03:00.708Z,-0.50
2022-11-14T04:05:46.895Z,-0.50
2022-11-14T04:08:32.885Z,-0.40
2022-11-14T04:11:19.904Z,-0.30
2022-11-14T04:14:05.870Z,-0.20
2022-11-14T04:16:51.633Z,-0.20
2022-11-14T04:19:37.841Z,-0.20
2022-11-14T04:22:23.874Z,-0.30
2022-11-14T04:25:10.415Z,-0.30
2022-11-14T04:27:56.231Z,-0.20
2022-11-14T04:30:42.418Z,-0.30
2022-11-14T04:33:28.573Z,-0.30
2022-11-14T04:36:14.665Z,-0.20
2022-11-14T04:39:00.902Z,-0.20
2022-11-14T04:41:46.953Z,-0.30
2022-11-14T04:44:32.741Z,-0.30
2022-11-14T04:47:18.937Z,-0.40
2022-11-14T04:50:05.377Z,-0.40
2022-11-14T04:52:53.611Z,-0.40
2022-11-14T04:55:39.831Z,-0.40
2022-11-14T04:58:26.501Z,-0.40
2022-11-14T05:01:13.980Z,-0.40
2022-11-14T05:04:00.197Z,-0.30
2022-11-14T05:06:45.870Z,-0.40
2022-11-14T05:09:31.487Z,-0.50
2022-11-14T05:12:17.499Z,-0.50
2022-11-14T05:15:03.911Z,-0.50
2022-11-14T05:17:49.886Z,-0.50
2022-11-14T05:20:35.945Z,-0.50
2022-11-14T05:23:23.781Z,-0.50
2022-11-14T05:26:12.446Z,-0.40
2022-11-14T05:28:58.384Z,-0.40
2022-11-14T05:31:44.480Z,-0.30
2022-11-14T05:34:30.615Z,-0.40
2022-11-14T05:37:16.526Z,-0.50
2022-11-14T05:40:03.626Z,-0.60
2022-11-14T05:42:49.303Z,-0.50
2022-11-14T05:45:35.497Z,-0.40
2022-11-14T05:48:29.120Z,-0.20
2022-11-14T05:51:15.632Z,-0.30
2022-11-14T05:54:01.834Z,-0.50
2022-11-14T05:56:47.489Z,-0.40
2022-11-14T05:59:33.444Z,-0.10
2022-11-14T06:02:19.567Z,-0.10
2022-11-14T06:05:06.700Z,-0.20
2022-11-14T06:07:57.366Z,-0.50
2022-11-14T06:10:43.137Z,-0.40
2022-11-14T06:13:29.456Z,-0.40
2022-11-14T06:16:17.832Z,-0.40
2022-11-14T06:19:05.208Z,-0.50
2022-11-14T06:21:50.941Z,-0.40
2022-11-14T06:24:37.188Z,-0.40
2022-11-14T06:27:23.237Z,-0.40
2022-11-14T06:30:09.853Z,-0.40
2022-11-14T06:32:59.292Z,-0.20
2022-11-14T06:35:45.241Z,0.00
2022-11-14T06:38:33.200Z,0.20
2022-11-14T06:41:21.458Z,0.50
2022-11-14T06:44:08.533Z,0.80
2022-11-14T06:46:54.446Z,0.80
2022-11-14T06:49:40.966Z,0.60
2022-11-14T06:52:27.221Z,0.30
2022-11-14T06:55:13.285Z,0.20
2022-11-14T06:57:59.570Z,0.30
2022-11-14T07:00:45.273Z,0.40
2022-11-14T07:03:31.471Z,0.10
2022-11-14T07:06:23.331Z,0.20
2022-11-14T07:09:11.148Z,0.90
2022-11-14T07:11:57.258Z,1.30
2022-11-14T07:14:43.061Z,1.30
2022-11-14T07:17:31.385Z,1.10
2022-11-14T07:20:20.550Z,0.90
2022-11-14T07:23:06.275Z,1.00
2022-11-14T07:25:52.258Z,1.10
2022-11-14T07:28:41.498Z,1.20
2022-11-14T07:31:27.383Z,1.50
2022-11-14T07:34:13.799Z,1.90
2022-11-14T07:36:59.770Z,2.10
2022-11-14T07:39:46.100Z,2.30
2022-11-14T07:42:31.826Z,2.10
2022-11-14T07:45:19.903Z,1.80
2022-11-14T07:48:09.086Z,1.70
2022-11-14T07:50:59.614Z,1.70
2022-11-14T07:53:46.230Z,1.80
2022-11-14T07:56:32.296Z,1.90
2022-11-14T07:59:18.252Z,2.10
2022-11-14T08:02:03.959Z,2.30
2022-11-14T08:04:49.730Z,2.40
2022-11-14T08:07:35.823Z,2.40
2022-11-14T08:10:21.942Z,2.40
2022-11-14T08:13:31.016Z,2.40
2022-11-14T08:16:14.363Z,2.50
2022-11-14T08:19:01.130Z,2.70
2022-11-14T08:21:46.944Z,2.80
2022-11-14T08:24:32.687Z,2.90
2022-11-14T08:27:18.911Z,3.10
2022-11-14T08:30:05.495Z,3.10
2022-11-14T08:32:51.246Z,3.20
2022-11-14T08:35:37.371Z,3.20
2022-11-14T08:38:23.390Z,3.40
2022-11-14T08:41:09.160Z,3.60
2022-11-14T08:43:55.351Z,3.90
2022-11-14T08:46:41.356Z,4.20
2022-11-14T08:49:27.492Z,4.50
2022-11-14T08:52:16.690Z,4.90
2022-11-14T08:55:02.898Z,5.30
2022-11-14T08:57:50.008Z,5.70
2022-11-14T09:00:36.095Z,6.10
2022-11-14T09:03:22.199Z,6.30
2022-11-14T09:06:08.235Z,6.50
2022-11-14T09:08:54.085Z,6.70
2022-11-14T09:11:40.452Z,7.10
2022-11-14T09:14:26.484Z,7.10
2022-11-14T09:17:12.272Z,7.10
2022-11-14T09:19:58.365Z,7.20
2022-11-14T09:22:44.372Z,7.20
2022-11-14T09:25:31.224Z,7.40
2022-11-14T09:28:17.304Z,7.60
2022-11-14T09:31:09.916Z,7.60
2022-11-14T09:33:55.841Z,7.70
2022-11-14T09:36:41.580Z,7.80
2022-11-14T09:39:27.689Z,7.90
2022-11-14T09:42:17.491Z,8.00
2022-11-14T09:45:10.224Z,8.10
2022-11-14T09:48:06.312Z,8.20
2022-11-14T09:51:03.806Z,8.30
2022-11-14T09:54:19.470Z,8.50
2022-11-14T09:57:14.433Z,8.60
2022-11-14T10:00:00.873Z,8.60
2022-11-14T10:03:20.853Z,8.70
2022-11-14T10:06:09.582Z,8.90
2022-11-14T10:09:33.837Z,9.00
2022-11-14T10:12:35.322Z,9.10
2022-11-14T10:15:33.994Z,9.10
2022-11-14T10:18:52.678Z,9.20
2022-11-14T10:22:11.817Z,9.40
2022-11-14T10:25:30.666Z,9.60
2022-11-14T10:28:39.563Z,9.90
2022-11-14T10:31:46.680Z,10.10
2022-11-14T10:34:44.043Z,10.20
2022-11-14T10:37:47.792Z,10.50
2022-11-14T10:40:45.841Z,10.60
2022-11-14T10:43:48.342Z,10.90
2022-11-14T10:46:38.986Z,11.00
2022-11-14T10:49:26.029Z,11.20
2022-11-14T10:52:18.107Z,11.40
2022-11-14T10:55:12.723Z,11.60
2022-11-14T10:57:58.516Z,11.80
2022-11-14T11:00:44.301Z,12.00
2022-11-14T11:03:44.128Z,12.20
2022-11-14T11:06:30.283Z,12.20
2022-11-14T11:09:43.757Z,12.20
2022-11-14T11:12:37.403Z,12.00
2022-11-14T11:15:26.295Z,11.90
2022-11-14T11:18:31.138Z,11.80
2022-11-14T11:21:20.558Z,12.10
2022-11-14T11:24:08.780Z,12.20
2022-11-14T11:27:15.173Z,12.30
2022-11-14T11:30:20.619Z,12.30
2022-11-14T11:33:25.366Z,12.20
2022-11-14T11:36:23.427Z,12.20
2022-11-14T11:39:22.725Z,12.10
2022-11-14T11:42:12.452Z,12.30
2022-11-14T11:45:05.565Z,12.30
2022-11-14T11:48:14.980Z,12.20
2022-11-14T11:51:02.790Z,11.90
2022-11-14T11:54:03.127Z,11.70
2022-11-14T11:56:54.863Z,11.40
2022-11-14T11:59:53.059Z,11.10
2022-11-14T12:02:49.820Z,10.70
2022-11-14T12:06:08.640Z,10.50
2022-11-14T12:09:21.836Z,10.30
2022-11-14T12:12:42.225Z,10.20
2022-11-14T12:16:10.250Z,10.10
2022-11-14T12:19:11.868Z,10.00
2022-11-14T12:22:34.158Z,9.80
2022-11-14T12:25:42.776Z,9.90
2022-11-14T12:29:07.433Z,9.90
2022-11-14T12:32:02.185Z,9.90
2022-11-14T12:34:49.304Z,9.90
2022-11-14T12:37:42.644Z,9.60
2022-11-14T12:40:29.028Z,9.60
2022-11-14T12:43:37.335Z,9.30
2022-11-14T12:46:24.080Z,9.20
2022-11-14T12:49:47.050Z,9.10
2022-11-14T12:52:44.719Z,9.30
2022-11-14T12:55:30.442Z,9.40
2022-11-14T12:58:44.409Z,9.30
2022-11-14T13:01:30.463Z,9.30
2022-11-14T13:04:41.114Z,9.20
2022-11-14T13:07:35.998Z,9.30
2022-11-14T13:10:33.158Z,9.40
2022-11-14T13:13:37.395Z,9.50
2022-11-14T13:16:49.875Z,9.50
2022-11-14T13:20:05.599Z,9.50
2022-11-14T13:22:51.613Z,9.60
2022-11-14T13:25:37.545Z,9.70
2022-11-14T13:28:39.065Z,9.80
2022-11-14T13:31:35.196Z,9.80
2022-11-14T13:34:35.926Z,9.80
2022-11-14T13:37:34.744Z,9.70
2022-11-14T13:40:25.187Z,9.60
2022-11-14T13:43:11.096Z,9.60
2022-11-14T13:46:21.525Z,9.60
2022-11-14T13:49:40.212Z,9.70
2022-11-14T13:52:32.936Z,9.70
2022-11-14T13:55:23.633Z,9.80
2022-11-14T13:59:05.825Z,9.80
2022-11-14T14:02:09.928Z,9.80
2022-11-14T14:05:07.591Z,9.80
2022-11-14T14:08:30.107Z,9.70
2022-11-14T14:11:48.084Z,9.60
2022-11-14T14:14:52.535Z,9.60
2022-11-14T14:18:05.952Z,9.60
2022-11-14T14:21:02.367Z,9.60
2022-11-14T14:24:27.072Z,9.50
2022-11-14T14:27:31.345Z,9.50
2022-11-14T14:30:18.433Z,9.40
2022-11-14T14:33:07.575Z,9.40
2022-11-14T14:35:54.518Z,9.20
2022-11-14T14:38:40.670Z,9.20
2022-11-14T14:41:31.878Z,9.10
2022-11-14T14:44:52.817Z,9.10
2022-11-14T14:47:41.293Z,9.00
2022-11-14T14:50:49.726Z,8.90
2022-11-14T14:53:36.458Z,8.80
2022-11-14T14:56:27.689Z,8.80
2022-11-14T14:59:18.814Z,8.70
2022-11-14T15:02:15.287Z,8.60
2022-11-14T15:05:02.665Z,8.60
2022-11-14T15:07:49.999Z,8.60
2022-11-14T15:10:36.038Z,8.50
2022-11-14T15:13:24.348Z,8.50
2022-11-14T15:16:11.259Z,8.40
2022-11-14T15:18:58.952Z,8.30
2022-11-14T15:21:44.906Z,8.20
2022-11-14T15:24:31.218Z,8.10
2022-11-14T15:27:20.478Z,8.00
2022-11-14T15:30:19.629Z,7.90
2022-11-14T15:33:25.743Z,7.80
2022-11-14T15:36:20.221Z,7.80
2022-11-14T15:39:28.296Z,7.80
2022-11-14T15:42:15.066Z,7.70
2022-11-14T15:45:00.782Z,7.50
2022-11-14T15:47:47.286Z,7.20
2022-11-14T15:50:35.055Z,6.80
2022-11-14T15:53:20.963Z,6.60
2022-11-14T15:56:10.837Z,6.40
2022-11-14T15:58:56.631Z,6.20
2022-11-14T16:01:45.700Z,6.10
2022-11-14T16:04:34.707Z,6.00
2022-11-14T16:07:21.170Z,5.90
2022-11-14T16:10:28.015Z,5.90
2022-11-14T16:13:13.892Z,5.80
2022-11-14T16:15:59.979Z,5.70
2022-11-14T16:18:46.096Z,5.80
2022-11-14T16:21:33.040Z,5.80
2022-11-14T16:24:21.905Z,5.80
2022-11-14T16:27:07.649Z,5.90
2022-11-14T16:29:54.005Z,5.80
2022-11-14T16:32:41.193Z,5.50
2022-11-14T16:35:28.040Z,5.40
2022-11-14T16:38:14.036Z,5.20
2022-11-14T16:41:02.765Z,5.10
2022-11-14T16:43:48.508Z,4.70
2022-11-14T16:46:34.537Z,4.60
2022-11-14T16:49:20.450Z,4.70
2022-11-14T16:52:08.547Z,4.70
2022-11-14T16:54:54.858Z,4.70
2022-11-14T16:57:41.031Z,4.70
2022-11-14T17:00:27.589Z,4.80
2022-11-14T17:03:13.837Z,4.70
2022-11-14T17:05:59.793Z,4.70
2022-11-14T17:08:45.541Z,4.30
2022-11-14T17:11:31.607Z,4.00
2022-11-14T17:14:17.762Z,3.90
2022-11-14T17:17:03.761Z,3.90
2022-11-14T17:19:50.213Z,4.10
2022-11-14T17:22:36.174Z,4.20
2022-11-14T17:25:23.417Z,4.40
2022-11-14T17:28:09.469Z,4.50
2022-11-14T17:30:55.326Z,4.60
2022-11-14T17:33:41.497Z,4.70
2022-11-14T17:36:29.814Z,4.60
2022-11-14T17:39:15.890Z,4.60
2022-11-14T17:42:01.974Z,4.60
2022-11-14T17:44:47.890Z,4.90
2022-11-14T17:47:33.822Z,4.90
2022-11-14T17:50:19.966Z,4.70
2022-11-14T17:53:05.822Z,4.30
2022-11-14T17:55:57.227Z,4.00
2022-11-14T17:58:43.834Z,3.80
2022-11-14T18:01:31.269Z,3.70
2022-11-14T18:04:17.561Z,3.60
2022-11-14T18:07:03.625Z,3.70
2022-11-14T18:09:49.765Z,3.80
2022-11-14T18:12:35.515Z,3.90
2022-11-14T18:15:26.586Z,4.00
2022-11-14T18:18:13.844Z,4.10
2022-11-14T18:21:19.208Z,4.00
2022-11-14T18:24:05.312Z,4.00
2022-11-14T18:26:51.270Z,4.00
2022-11-14T18:29:37.083Z,4.10
2022-11-14T18:32:23.136Z,4.10
2022-11-14T18:35:09.894Z,4.10
2022-11-14T18:37:57.152Z,4.00
2022-11-14T18:40:44.244Z,3.90
2022-11-14T18:43:32.743Z,4.00
2022-11-14T18:46:23.635Z,4.40
2022-11-14T18:49:10.016Z,4.10
2022-11-14T18:51:56.376Z,3.60
2022-11-14T18:54:42.361Z,4.00
2022-11-14T18:57:28.285Z,4.70
2022-11-14T19:00:15.117Z,5.10
2022-11-14T19:03:06.016Z,4.30
2022-11-14T19:05:52.131Z,3.70
2022-11-14T19:08:39.003Z,3.50
2022-11-14T19:11:44.292Z,3.60
2022-11-14T19:14:30.291Z,3.80
2022-11-14T19:17:20.706Z,3.90
2022-11-14T19:20:11.459Z,3.90
2022-11-14T19:23:00.072Z,3.80
2022-11-14T19:25:45.969Z,3.60
2022-11-14T19:28:31.823Z,3.50
2022-11-14T19:31:19.237Z,3.50
2022-11-14T19:34:05.381Z,3.60
2022-11-14T19:36:59.945Z,3.60
2022-11-14T19:39:46.530Z,3.70
2022-11-14T19:42:32.539Z,3.80
2022-11-14T19:45:18.480Z,3.90
2022-11-14T19:48:05.749Z,3.90
2022-11-14T19:50:59.578Z,4.00
2022-11-14T19:53:46.225Z,4.00
2022-11-14T19:56:32.412Z,4.00
2022-11-14T19:59:24.013Z,3.80
2022-11-14T20:02:13.775Z,3.40
2022-11-14T20:04:59.689Z,3.30
2022-11-14T20:07:45.874Z,3.50
2022-11-14T20:10:31.963Z,3.50
2022-11-14T20:13:18.053Z,3.50
2022-11-14T20:16:14.726Z,3.50
2022-11-14T20:19:01.737Z,3.60
2022-11-14T20:21:49.054Z,3.70
2022-11-14T20:24:35.210Z,3.60
2022-11-14T20:27:21.417Z,3.20
2022-11-14T20:30:07.985Z,3.00
2022-11-14T20:32:53.934Z,3.20
2022-11-14T20:35:40.230Z,3.60
2022-11-14T20:38:28.073Z,3.80
2022-11-14T20:41:14.807Z,3.80
2022-11-14T20:44:02.128Z,3.50
2022-11-14T20:46:48.627Z,3.00
2022-11-14T20:49:34.437Z,3.00
2022-11-14T20:52:20.979Z,3.30
2022-11-14T20:55:11.623Z,3.40
2022-11-14T20:57:57.794Z,3.30
2022-11-14T21:00:43.961Z,3.20
2022-11-14T21:03:30.343Z,3.20
2022-11-14T21:06:17.045Z,3.20
2022-11-14T21:09:03.065Z,3.20
2022-11-14T21:11:49.116Z,3.40
2022-11-14T21:14:34.941Z,3.40
2022-11-14T21:17:28.023Z,3.40
2022-11-14T21:20:14.190Z,3.50
2022-11-14T21:23:00.220Z,3.30
2022-11-14T21:25:45.930Z,3.00
2022-11-14T21:28:33.135Z,2.80
2022-11-14T21:31:27.486Z,2.90
2022-11-14T21:34:15.622Z,3.30
2022-11-14T21:37:01.692Z,3.60
2022-11-14T21:39:48.779Z,3.80
2022-11-14T21:42:34.959Z,3.80
2022-11-14T21:45:20.704Z,3.50
2022-11-14T21:48:06.595Z,3.20
2022-11-14T21:50:52.956Z,2.90
2022-11-14T21:53:39.804Z,2.80
2022-11-14T21:56:28.371Z,2.60
2022-11-14T21:59:18.313Z,2.50
2022-11-14T22:02:22.351Z,2.50
2022-11-14T22:05:08.496Z,2.70
2022-11-14T22:07:54.507Z,2.60
2022-11-14T22:10:40.404Z,2.50
2022-11-14T22:13:28.636Z,2.70
2022-11-14T22:16:18.789Z,3.00
2022-11-14T22:19:05.914Z,3.20
2022-11-14T22:21:52.244Z,3.30
2022-11-14T22:24:37.976Z,3.30
2022-11-14T22:27:23.984Z,3.40
2022-11-14T22:30:10.686Z,3.50
2022-11-14T22:32:58.769Z,3.60
2022-11-14T22:35:44.574Z,3.70
2022-11-14T22:38:35.696Z,3.80
2022-11-14T22:41:31.529Z,3.90
2022-11-14T22:44:18.302Z,3.90
2022-11-14T22:47:04.170Z,3.70
2022-11-14T22:50:02.439Z,3.60
2022-11-14T22:52:48.532Z,3.40
2022-11-14T22:55:34.573Z,3.00
2022-11-14T22:58:20.677Z,2.80
2022-11-14T23:01:24.583Z,2.90
2022-11-14T23:04:10.386Z,3.20
2022-11-14T23:06:56.523Z,3.30
2022-11-14T23:09:43.586Z,3.40
2022-11-14T23:12:29.645Z,3.20
2022-11-14T23:15:15.729Z,2.90
2022-11-14T23:18:01.841Z,2.70
2022-11-14T23:20:47.613Z,2.50
2022-11-14T23:23:34.203Z,2.50
2022-11-14T23:26:20.705Z,2.60
2022-11-14T23:29:06.521Z,2.70
2022-11-14T23:31:52.545Z,2.80
2022-11-14T23:34:38.502Z,2.80
2022-11-14T23:37:24.318Z,2.80
2022-11-14T23:40:10.899Z,2.80
2022-11-14T23:42:56.865Z,2.90
2022-11-14T23:45:42.953Z,3.00
2022-11-14T23:48:28.882Z,3.10
2022-11-14T23:51:14.933Z,3.10
2022-11-14T23:54:04.271Z,3.10
2022-11-14T23:56:50.302Z,3.10
2022-11-14T23:59:36.362Z,3.10
